<?xml version="1.0" encoding="UTF-8" standalone="no" ?>
<gpx xmlns="http://www.topografix.com/GPX/1/1" xmlns:xsi="http://www.w3.org/2001/XMLSchema-instance" xsi:schemaLocation="http://www.topografix.com/GPX/1/1 http://www.topografix.com/GPX/1/1/gpx.xsd" version="1.1" creator="VisuGPX - https://www.visugpx.com">
  <metadata>
    <name>Pas de l\'Aiguille depuis Richardière</name>
    <desc><![CDATA[Pas de l\'Aiguille depuis Richardière]]></desc>
  </metadata>
  <trk>
    <name><![CDATA[22 sept. 2013]]></name>
    <cmt><![CDATA[10:30:05]]></cmt>
    <desc><![CDATA[comment ...]]></desc>
    <trkseg>
      <trkpt lat="44.82245" lon="5.54928">
        <ele>1019</ele>
        <time>2013-09-22T10:29:50Z</time>
      </trkpt>
      <trkpt lat="44.82258" lon="5.54831">
        <ele>1016</ele>
        <time>2013-09-22T10:31:07Z</time>
      </trkpt>
      <trkpt lat="44.82254" lon="5.54767">
        <ele>1026</ele>
        <time>2013-09-22T10:32:26Z</time>
      </trkpt>
      <trkpt lat="44.82247" lon="5.54671">
        <ele>1036</ele>
        <time>2013-09-22T10:33:44Z</time>
      </trkpt>
      <trkpt lat="44.82261" lon="5.54568">
        <ele>1030</ele>
        <time>2013-09-22T10:35:02Z</time>
      </trkpt>
      <trkpt lat="44.8225" lon="5.54515">
        <ele>1046</ele>
        <time>2013-09-22T10:36:13Z</time>
      </trkpt>
      <trkpt lat="44.82257" lon="5.54512">
        <ele>1055</ele>
        <time>2013-09-22T10:37:22Z</time>
      </trkpt>
      <trkpt lat="44.82249" lon="5.54508">
        <ele>1063</ele>
        <time>2013-09-22T10:38:29Z</time>
      </trkpt>
      <trkpt lat="44.82208" lon="5.54403">
        <ele>1041</ele>
        <time>2013-09-22T10:39:48Z</time>
      </trkpt>
      <trkpt lat="44.82167" lon="5.54311">
        <ele>1042</ele>
        <time>2013-09-22T10:40:54Z</time>
      </trkpt>
      <trkpt lat="44.8216" lon="5.54256">
        <ele>1051</ele>
        <time>2013-09-22T10:42:00Z</time>
      </trkpt>
      <trkpt lat="44.82132" lon="5.54135">
        <ele>1071</ele>
        <time>2013-09-22T10:43:15Z</time>
      </trkpt>
      <trkpt lat="44.82118" lon="5.54049">
        <ele>1069</ele>
        <time>2013-09-22T10:44:28Z</time>
      </trkpt>
      <trkpt lat="44.82082" lon="5.53942">
        <ele>1077</ele>
        <time>2013-09-22T10:45:47Z</time>
      </trkpt>
      <trkpt lat="44.82047" lon="5.53863">
        <ele>1074</ele>
        <time>2013-09-22T10:46:59Z</time>
      </trkpt>
      <trkpt lat="44.82016" lon="5.5377">
        <ele>1074</ele>
        <time>2013-09-22T10:48:17Z</time>
      </trkpt>
      <trkpt lat="44.81988" lon="5.53667">
        <ele>1066</ele>
        <time>2013-09-22T10:49:36Z</time>
      </trkpt>
      <trkpt lat="44.81952" lon="5.5359">
        <ele>1087</ele>
        <time>2013-09-22T10:50:54Z</time>
      </trkpt>
      <trkpt lat="44.81932" lon="5.535">
        <ele>1094</ele>
        <time>2013-09-22T10:52:13Z</time>
      </trkpt>
      <trkpt lat="44.81923" lon="5.53418">
        <ele>1096</ele>
        <time>2013-09-22T10:53:31Z</time>
      </trkpt>
      <trkpt lat="44.81912" lon="5.53391">
        <ele>1115</ele>
        <time>2013-09-22T10:54:50Z</time>
      </trkpt>
      <trkpt lat="44.81901" lon="5.53373">
        <ele>1128</ele>
        <time>2013-09-22T10:56:08Z</time>
      </trkpt>
      <trkpt lat="44.81885" lon="5.53262">
        <ele>1131</ele>
        <time>2013-09-22T10:57:27Z</time>
      </trkpt>
      <trkpt lat="44.81882" lon="5.53149">
        <ele>1140</ele>
        <time>2013-09-22T10:58:45Z</time>
      </trkpt>
      <trkpt lat="44.81919" lon="5.53022">
        <ele>1135</ele>
        <time>2013-09-22T11:00:04Z</time>
      </trkpt>
      <trkpt lat="44.8193" lon="5.52909">
        <ele>1124</ele>
        <time>2013-09-22T11:01:23Z</time>
      </trkpt>
      <trkpt lat="44.81903" lon="5.52798">
        <ele>1131</ele>
        <time>2013-09-22T11:02:40Z</time>
      </trkpt>
      <trkpt lat="44.81871" lon="5.52708">
        <ele>1147</ele>
        <time>2013-09-22T11:03:57Z</time>
      </trkpt>
      <trkpt lat="44.81849" lon="5.52707">
        <ele>1151</ele>
        <time>2013-09-22T11:05:04Z</time>
      </trkpt>
      <trkpt lat="44.81828" lon="5.5264">
        <ele>1154</ele>
        <time>2013-09-22T11:06:11Z</time>
      </trkpt>
      <trkpt lat="44.81804" lon="5.52579">
        <ele>1157</ele>
        <time>2013-09-22T11:07:20Z</time>
      </trkpt>
      <trkpt lat="44.81775" lon="5.52507">
        <ele>1164</ele>
        <time>2013-09-22T11:08:27Z</time>
      </trkpt>
      <trkpt lat="44.81773" lon="5.52468">
        <ele>1158</ele>
        <time>2013-09-22T11:09:33Z</time>
      </trkpt>
      <trkpt lat="44.81751" lon="5.52394">
        <ele>1159</ele>
        <time>2013-09-22T11:10:40Z</time>
      </trkpt>
      <trkpt lat="44.81729" lon="5.52327">
        <ele>1160</ele>
        <time>2013-09-22T11:11:47Z</time>
      </trkpt>
      <trkpt lat="44.81685" lon="5.52297">
        <ele>1164</ele>
        <time>2013-09-22T11:12:53Z</time>
      </trkpt>
      <trkpt lat="44.81664" lon="5.52202">
        <ele>1168</ele>
        <time>2013-09-22T11:14:00Z</time>
      </trkpt>
      <trkpt lat="44.81643" lon="5.52175">
        <ele>1170</ele>
        <time>2013-09-22T11:15:08Z</time>
      </trkpt>
      <trkpt lat="44.81605" lon="5.52147">
        <ele>1178</ele>
        <time>2013-09-22T11:16:15Z</time>
      </trkpt>
      <trkpt lat="44.81587" lon="5.52143">
        <ele>1175</ele>
        <time>2013-09-22T11:17:29Z</time>
      </trkpt>
      <trkpt lat="44.81568" lon="5.52145">
        <ele>1167</ele>
        <time>2013-09-22T11:18:47Z</time>
      </trkpt>
      <trkpt lat="44.81544" lon="5.52098">
        <ele>1166</ele>
        <time>2013-09-22T11:20:02Z</time>
      </trkpt>
      <trkpt lat="44.81503" lon="5.52053">
        <ele>1170</ele>
        <time>2013-09-22T11:21:16Z</time>
      </trkpt>
      <trkpt lat="44.81465" lon="5.52037">
        <ele>1173</ele>
        <time>2013-09-22T11:22:30Z</time>
      </trkpt>
      <trkpt lat="44.81416" lon="5.52003">
        <ele>1360</ele>
        <time>2013-09-22T11:23:59Z</time>
      </trkpt>
      <trkpt lat="44.81394" lon="5.51973">
        <ele>1377</ele>
        <time>2013-09-22T11:25:17Z</time>
      </trkpt>
      <trkpt lat="44.81376" lon="5.51952">
        <ele>1400</ele>
        <time>2013-09-22T11:26:35Z</time>
      </trkpt>
      <trkpt lat="44.81384" lon="5.51907">
        <ele>1416</ele>
        <time>2013-09-22T11:27:53Z</time>
      </trkpt>
      <trkpt lat="44.8137" lon="5.51888">
        <ele>1417</ele>
        <time>2013-09-22T11:29:11Z</time>
      </trkpt>
      <trkpt lat="44.81368" lon="5.51864">
        <ele>1433</ele>
        <time>2013-09-22T11:30:29Z</time>
      </trkpt>
      <trkpt lat="44.81355" lon="5.51824">
        <ele>1437</ele>
        <time>2013-09-22T11:31:47Z</time>
      </trkpt>
      <trkpt lat="44.81343" lon="5.51781">
        <ele>1430</ele>
        <time>2013-09-22T11:33:06Z</time>
      </trkpt>
      <trkpt lat="44.81337" lon="5.51757">
        <ele>1435</ele>
        <time>2013-09-22T11:34:23Z</time>
      </trkpt>
      <trkpt lat="44.81322" lon="5.51713">
        <ele>1446</ele>
        <time>2013-09-22T11:35:41Z</time>
      </trkpt>
      <trkpt lat="44.81303" lon="5.51678">
        <ele>1465</ele>
        <time>2013-09-22T11:37:00Z</time>
      </trkpt>
      <trkpt lat="44.81291" lon="5.51631">
        <ele>1474</ele>
        <time>2013-09-22T11:38:18Z</time>
      </trkpt>
      <trkpt lat="44.81286" lon="5.51609">
        <ele>1472</ele>
        <time>2013-09-22T11:39:36Z</time>
      </trkpt>
      <trkpt lat="44.81272" lon="5.51574">
        <ele>1482</ele>
        <time>2013-09-22T11:40:53Z</time>
      </trkpt>
      <trkpt lat="44.81257" lon="5.51558">
        <ele>1482</ele>
        <time>2013-09-22T11:42:22Z</time>
      </trkpt>
      <trkpt lat="44.81253" lon="5.51551">
        <ele>1486</ele>
        <time>2013-09-22T11:43:40Z</time>
      </trkpt>
      <trkpt lat="44.81248" lon="5.5153">
        <ele>1474</ele>
        <time>2013-09-22T11:44:58Z</time>
      </trkpt>
      <trkpt lat="44.81233" lon="5.51499">
        <ele>1489</ele>
        <time>2013-09-22T11:46:17Z</time>
      </trkpt>
      <trkpt lat="44.81225" lon="5.51481">
        <ele>1512</ele>
        <time>2013-09-22T11:47:36Z</time>
      </trkpt>
      <trkpt lat="44.81201" lon="5.51459">
        <ele>1528</ele>
        <time>2013-09-22T11:48:53Z</time>
      </trkpt>
      <trkpt lat="44.81185" lon="5.51426">
        <ele>1542</ele>
        <time>2013-09-22T11:50:11Z</time>
      </trkpt>
      <trkpt lat="44.81163" lon="5.51414">
        <ele>1548</ele>
        <time>2013-09-22T11:51:30Z</time>
      </trkpt>
      <trkpt lat="44.81145" lon="5.51398">
        <ele>1562</ele>
        <time>2013-09-22T11:52:48Z</time>
      </trkpt>
      <trkpt lat="44.81123" lon="5.51384">
        <ele>1559</ele>
        <time>2013-09-22T11:54:07Z</time>
      </trkpt>
      <trkpt lat="44.81105" lon="5.51355">
        <ele>1560</ele>
        <time>2013-09-22T11:55:36Z</time>
      </trkpt>
      <trkpt lat="44.8109" lon="5.51336">
        <ele>1561</ele>
        <time>2013-09-22T11:57:06Z</time>
      </trkpt>
      <trkpt lat="44.81065" lon="5.51312">
        <ele>1560</ele>
        <time>2013-09-22T11:58:35Z</time>
      </trkpt>
      <trkpt lat="44.81041" lon="5.51295">
        <ele>1561</ele>
        <time>2013-09-22T12:00:05Z</time>
      </trkpt>
      <trkpt lat="44.81026" lon="5.51282">
        <ele>1562</ele>
        <time>2013-09-22T12:01:34Z</time>
      </trkpt>
      <trkpt lat="44.81014" lon="5.51257">
        <ele>1561</ele>
        <time>2013-09-22T12:03:03Z</time>
      </trkpt>
      <trkpt lat="44.81012" lon="5.51291">
        <ele>1558</ele>
        <time>2013-09-22T12:04:32Z</time>
      </trkpt>
      <trkpt lat="44.80996" lon="5.51273">
        <ele>1558</ele>
        <time>2013-09-22T12:06:00Z</time>
      </trkpt>
      <trkpt lat="44.80993" lon="5.51269">
        <ele>1559</ele>
        <time>2013-09-22T12:07:02Z</time>
      </trkpt>
      <trkpt lat="44.80989" lon="5.51241">
        <ele>1558</ele>
        <time>2013-09-22T12:08:31Z</time>
      </trkpt>
      <trkpt lat="44.80959" lon="5.51208">
        <ele>1558</ele>
        <time>2013-09-22T12:10:01Z</time>
      </trkpt>
      <trkpt lat="44.80936" lon="5.51229">
        <ele>1559</ele>
        <time>2013-09-22T12:11:28Z</time>
      </trkpt>
      <trkpt lat="44.8087" lon="5.51222">
        <ele>1560</ele>
        <time>2013-09-22T12:12:58Z</time>
      </trkpt>
      <trkpt lat="44.80831" lon="5.51231">
        <ele>1562</ele>
        <time>2013-09-22T12:14:27Z</time>
      </trkpt>
      <trkpt lat="44.80769" lon="5.51219">
        <ele>1563</ele>
        <time>2013-09-22T12:15:57Z</time>
      </trkpt>
      <trkpt lat="44.80727" lon="5.51184">
        <ele>1564</ele>
        <time>2013-09-22T12:16:56Z</time>
      </trkpt>
      <trkpt lat="44.80684" lon="5.5118">
        <ele>1566</ele>
        <time>2013-09-22T12:18:25Z</time>
      </trkpt>
      <trkpt lat="44.80648" lon="5.51159">
        <ele>1566</ele>
        <time>2013-09-22T12:19:33Z</time>
      </trkpt>
      <trkpt lat="44.80606" lon="5.51187">
        <ele>1569</ele>
        <time>2013-09-22T12:21:03Z</time>
      </trkpt>
    </trkseg>
  </trk>
</gpx>